createdAt,value
2022-08-26T00:01:55.909Z,21.54
2022-08-26T00:04:25.454Z,21.35
2022-08-26T00:06:56.501Z,21.31
2022-08-26T00:09:24.680Z,21.36
2022-08-26T00:11:53.854Z,21.38
2022-08-26T00:14:21.480Z,21.32
2022-08-26T00:16:49.005Z,21.28
2022-08-26T00:19:21.451Z,21.18
2022-08-26T00:21:49.615Z,21.16
2022-08-26T00:24:19.530Z,21.07
2022-08-26T00:26:47.232Z,21.04
2022-08-26T00:29:14.842Z,21.02
2022-08-26T00:31:42.283Z,20.93
2022-08-26T00:34:11.124Z,20.93
2022-08-26T00:36:39.590Z,20.87
2022-08-26T00:39:08.431Z,20.78
2022-08-26T00:41:39.873Z,20.80
2022-08-26T00:44:09.119Z,20.79
2022-08-26T00:47:00.934Z,20.84
2022-08-26T00:49:42.200Z,20.84
2022-08-26T00:52:16.515Z,20.89
2022-08-26T00:54:56.502Z,20.92
2022-08-26T00:57:23.809Z,20.80
2022-08-26T00:59:58.557Z,20.73
2022-08-26T01:02:25.419Z,20.72
2022-08-26T01:04:57.906Z,20.66
2022-08-26T01:07:31.351Z,20.74
2022-08-26T01:10:02.833Z,20.71
2022-08-26T01:12:40.168Z,20.80
2022-08-26T01:15:10.116Z,20.70
2022-08-26T01:17:39.675Z,20.55
2022-08-26T01:20:59.732Z,20.40
2022-08-26T01:23:39.315Z,20.43
2022-08-26T01:26:21.894Z,20.49
2022-08-26T01:28:53.853Z,20.54
2022-08-26T01:31:27.037Z,20.61
2022-08-26T01:34:10.907Z,20.57
2022-08-26T01:36:40.035Z,20.52
2022-08-26T01:39:07.807Z,20.54
2022-08-26T01:41:36.479Z,20.56
2022-08-26T01:44:09.700Z,20.49
2022-08-26T01:46:37.181Z,20.23
2022-08-26T01:49:08.182Z,20.35
2022-08-26T01:51:38.541Z,20.37
2022-08-26T01:54:12.094Z,20.39
2022-08-26T01:56:41.061Z,20.44
2022-08-26T01:59:14.414Z,20.43
2022-08-26T02:01:41.750Z,20.45
2022-08-26T02:04:45.403Z,20.35
2022-08-26T02:07:12.544Z,20.26
2022-08-26T02:09:42.206Z,20.27
2022-08-26T02:12:12.798Z,20.30
2022-08-26T02:14:50.238Z,20.30
2022-08-26T02:17:26.004Z,20.30
2022-08-26T02:20:17.672Z,20.26
2022-08-26T02:22:59.972Z,19.97
2022-08-26T02:25:43.043Z,19.98
2022-08-26T02:28:12.411Z,20.03
2022-08-26T02:30:41.102Z,20.07
2022-08-26T02:33:07.900Z,19.74
2022-08-26T02:35:36.535Z,19.84
2022-08-26T02:38:09.874Z,19.91
2022-08-26T02:40:42.089Z,19.92
2022-08-26T02:43:09.754Z,19.83
2022-08-26T02:45:36.681Z,19.73
2022-08-26T02:48:12.979Z,19.76
2022-08-26T02:50:41.030Z,19.75
2022-08-26T02:53:10.522Z,19.62
2022-08-26T02:55:37.128Z,19.71
2022-08-26T02:58:04.559Z,19.71
2022-08-26T03:00:31.855Z,19.75
2022-08-26T03:02:59.314Z,19.80
2022-08-26T03:05:26.334Z,19.67
2022-08-26T03:07:53.282Z,19.70
2022-08-26T03:10:21.756Z,19.77
2022-08-26T03:12:48.479Z,19.78
2022-08-26T03:15:18.592Z,19.74
2022-08-26T03:17:48.336Z,19.75
2022-08-26T03:20:17.532Z,19.78
2022-08-26T03:22:45.249Z,19.79
2022-08-26T03:25:16.616Z,19.73
2022-08-26T03:27:43.590Z,19.70
2022-08-26T03:30:31.570Z,19.64
2022-08-26T03:32:58.703Z,19.62
2022-08-26T03:35:26.446Z,19.61
2022-08-26T03:37:54.279Z,19.65
2022-08-26T03:40:22.369Z,19.56
2022-08-26T03:42:50.519Z,19.53
2022-08-26T03:45:19.785Z,19.52
2022-08-26T03:47:48.017Z,19.49
2022-08-26T03:50:22.899Z,19.44
2022-08-26T03:52:54.565Z,19.45
2022-08-26T03:55:27.291Z,19.43
2022-08-26T03:57:54.893Z,19.43
2022-08-26T04:00:22.463Z,19.39
2022-08-26T04:02:51.143Z,19.40
2022-08-26T04:05:22.061Z,19.40
2022-08-26T04:07:50.598Z,19.35
2022-08-26T04:10:29.163Z,19.42
2022-08-26T04:12:58.724Z,19.42
2022-08-26T04:15:26.965Z,19.40
2022-08-26T04:17:53.910Z,19.44
2022-08-26T04:20:22.541Z,19.43
2022-08-26T04:22:49.152Z,19.36
2022-08-26T04:25:16.345Z,19.30
2022-08-26T04:27:43.202Z,19.35
2022-08-26T04:30:11.493Z,19.37
2022-08-26T04:32:38.612Z,19.32
2022-08-26T04:35:06.421Z,19.25
2022-08-26T04:37:33.563Z,19.34
2022-08-26T04:40:00.611Z,19.29
2022-08-26T04:42:29.283Z,19.22
2022-08-26T04:44:56.041Z,19.29
2022-08-26T04:47:22.674Z,19.33
2022-08-26T04:49:49.379Z,19.38
2022-08-26T04:52:17.067Z,19.42
2022-08-26T04:54:43.683Z,19.49
2022-08-26T04:57:10.465Z,19.49
2022-08-26T04:59:39.274Z,19.52
2022-08-26T05:02:07.249Z,19.56
2022-08-26T05:04:34.592Z,19.39
2022-08-26T05:07:02.985Z,19.25
2022-08-26T05:09:30.475Z,19.28
2022-08-26T05:11:57.325Z,19.15
2022-08-26T05:14:24.283Z,19.04
2022-08-26T05:16:51.704Z,18.95
2022-08-26T05:19:27.977Z,18.85
2022-08-26T05:21:54.662Z,18.82
2022-08-26T05:24:21.743Z,18.78
2022-08-26T05:26:48.417Z,18.73
2022-08-26T05:29:16.810Z,18.73
2022-08-26T05:31:43.722Z,18.83
2022-08-26T05:34:10.458Z,18.85
2022-08-26T05:36:37.215Z,18.91
2022-08-26T05:39:07.798Z,19.01
2022-08-26T05:41:40.981Z,19.17
2022-08-26T05:44:12.654Z,19.22
2022-08-26T05:46:44.721Z,19.34
2022-08-26T05:49:14.427Z,19.48
2022-08-26T05:51:46.236Z,19.62
2022-08-26T05:54:21.349Z,19.71
2022-08-26T05:56:52.477Z,19.85
2022-08-26T05:59:21.281Z,19.98
2022-08-26T06:01:54.600Z,20.11
2022-08-26T06:04:22.513Z,20.29
2022-08-26T06:06:51.760Z,20.39
2022-08-26T06:09:18.376Z,20.46
2022-08-26T06:11:45.459Z,20.64
2022-08-26T06:14:12.409Z,20.70
2022-08-26T06:16:45.279Z,20.84
2022-08-26T06:19:15.753Z,20.96
2022-08-26T06:21:47.530Z,21.04
2022-08-26T06:24:39.401Z,21.07
2022-08-26T06:27:09.997Z,21.30
2022-08-26T06:29:39.084Z,21.35
2022-08-26T06:32:06.740Z,21.31
2022-08-26T06:34:33.855Z,21.36
2022-08-26T06:37:06.462Z,21.48
2022-08-26T06:39:34.227Z,21.62
2022-08-26T06:42:02.665Z,21.72
2022-08-26T06:44:29.795Z,21.88
2022-08-26T06:46:56.469Z,21.88
2022-08-26T06:49:27.198Z,21.98
2022-08-26T06:51:57.964Z,22.21
2022-08-26T06:54:24.901Z,22.27
2022-08-26T06:56:51.839Z,22.55
2022-08-26T06:59:18.502Z,22.77
2022-08-26T07:01:45.510Z,22.90
2022-08-26T07:04:15.740Z,23.01
2022-08-26T07:06:48.937Z,23.11
2022-08-26T07:09:17.373Z,23.20
2022-08-26T07:11:45.124Z,23.23
2022-08-26T07:14:12.544Z,23.47
2022-08-26T07:16:41.248Z,23.44
2022-08-26T07:19:11.176Z,23.31
2022-08-26T07:21:41.523Z,23.18
2022-08-26T07:24:11.087Z,23.07
2022-08-26T07:26:43.061Z,23.00
2022-08-26T07:29:12.520Z,23.05
2022-08-26T07:31:42.352Z,23.02
2022-08-26T07:34:13.543Z,23.17
2022-08-26T07:36:41.347Z,23.41
2022-08-26T07:39:08.856Z,23.70
2022-08-26T07:41:36.597Z,23.82
2022-08-26T07:44:04.293Z,24.09
2022-08-26T07:46:31.763Z,24.27
2022-08-26T07:48:59.140Z,24.55
2022-08-26T07:51:27.079Z,24.75
2022-08-26T07:53:55.256Z,24.94
2022-08-26T07:56:23.394Z,25.11
2022-08-26T07:58:53.949Z,25.30
2022-08-26T08:01:23.609Z,25.41
2022-08-26T08:03:53.245Z,25.42
2022-08-26T08:06:27.366Z,25.58
2022-08-26T08:08:56.336Z,25.58
2022-08-26T08:11:25.049Z,25.50
2022-08-26T08:13:56.040Z,25.43
2022-08-26T08:16:26.096Z,25.23
2022-08-26T08:18:53.781Z,25.06
2022-08-26T08:21:23.656Z,25.09
2022-08-26T08:23:56.201Z,25.08
2022-08-26T08:26:25.631Z,25.18
2022-08-26T08:28:57.758Z,25.25
2022-08-26T08:31:57.090Z,25.30
2022-08-26T08:34:19.192Z,25.39
2022-08-26T08:36:48.403Z,25.45
2022-08-26T08:39:15.052Z,25.44
2022-08-26T08:41:51.256Z,25.39
2022-08-26T08:47:06.068Z,25.34
2022-08-26T08:49:34.764Z,25.29
2022-08-26T08:52:31.214Z,25.45
2022-08-26T08:54:58.211Z,25.83
2022-08-26T08:57:49.638Z,26.22
2022-08-26T09:00:30.411Z,26.49
2022-08-26T09:03:06.607Z,26.68
2022-08-26T09:05:48.534Z,26.88
2022-08-26T09:08:25.100Z,27.00
2022-08-26T09:10:59.572Z,27.23
2022-08-26T09:13:28.203Z,27.40
2022-08-26T09:16:24.134Z,27.42
2022-08-26T09:19:41.902Z,27.35
2022-08-26T09:22:09.636Z,27.17
2022-08-26T09:24:41.843Z,27.12
2022-08-26T09:27:45.551Z,27.17
2022-08-26T09:30:37.271Z,27.22
2022-08-26T09:33:11.001Z,27.43
2022-08-26T09:35:40.707Z,27.44
2022-08-26T09:38:29.293Z,27.45
2022-08-26T09:41:18.903Z,27.35
2022-08-26T09:44:19.080Z,27.58
2022-08-26T09:47:01.252Z,27.92
2022-08-26T09:49:37.473Z,28.07
2022-08-26T09:52:11.307Z,28.27
2022-08-26T09:54:39.292Z,28.37
2022-08-26T09:57:24.750Z,28.52
2022-08-26T09:59:51.438Z,28.59
2022-08-26T10:02:32.424Z,28.80
2022-08-26T10:05:09.126Z,28.85
2022-08-26T10:07:44.342Z,28.83
2022-08-26T10:10:16.891Z,28.81
2022-08-26T10:12:57.314Z,29.02
2022-08-26T10:15:26.362Z,28.98
2022-08-26T10:18:21.397Z,29.09
2022-08-26T10:21:02.639Z,29.20
2022-08-26T10:23:42.530Z,29.19
2022-08-26T10:26:25.405Z,29.18
2022-08-26T10:29:27.303Z,29.45
2022-08-26T10:32:03.517Z,29.66
2022-08-26T10:34:33.368Z,29.78
2022-08-26T10:37:14.753Z,29.54
2022-08-26T10:39:57.139Z,29.77
2022-08-26T10:43:08.519Z,29.94
2022-08-26T10:45:46.920Z,29.76
2022-08-26T10:48:24.535Z,30.05
2022-08-26T10:50:52.018Z,29.87
2022-08-26T10:54:17.580Z,30.09
2022-08-26T10:57:19.086Z,30.31
2022-08-26T11:00:34.876Z,30.39
2022-08-26T11:03:35.104Z,30.48
2022-08-26T11:06:21.571Z,30.43
2022-08-26T11:08:53.914Z,30.60
2022-08-26T11:11:46.889Z,30.57
2022-08-26T11:14:28.670Z,30.49
2022-08-26T11:16:59.733Z,30.35
2022-08-26T11:19:58.844Z,30.45
2022-08-26T11:22:38.059Z,30.42
2022-08-26T11:25:18.361Z,30.49
2022-08-26T11:27:48.146Z,30.81
2022-08-26T11:30:15.811Z,30.92
2022-08-26T11:32:57.445Z,30.90
2022-08-26T11:35:44.010Z,31.03
2022-08-26T11:38:29.257Z,31.28
2022-08-26T11:41:20.694Z,31.14
2022-08-26T11:43:52.168Z,30.87
2022-08-26T11:46:30.522Z,30.64
2022-08-26T11:49:07.903Z,30.37
2022-08-26T11:51:40.421Z,30.36
2022-08-26T11:54:30.486Z,30.34
2022-08-26T11:57:09.349Z,30.37
2022-08-26T11:59:41.873Z,30.21
2022-08-26T12:02:17.728Z,30.53
2022-08-26T12:04:51.206Z,30.91
2022-08-26T12:07:25.936Z,31.30
2022-08-26T12:10:00.460Z,31.63
2022-08-26T12:12:38.625Z,31.70
2022-08-26T12:15:17.723Z,31.77
2022-08-26T12:17:50.477Z,31.98
2022-08-26T12:20:54.282Z,32.02
2022-08-26T12:23:41.374Z,31.68
2022-08-26T12:26:20.883Z,31.07
2022-08-26T12:29:12.829Z,30.81
2022-08-26T12:31:47.890Z,30.58
2022-08-26T12:34:17.630Z,30.61
2022-08-26T12:36:50.711Z,30.46
2022-08-26T12:39:28.739Z,30.40
2022-08-26T12:42:19.316Z,30.38
2022-08-26T12:45:01.055Z,30.38
2022-08-26T12:47:42.789Z,30.38
2022-08-26T12:50:23.511Z,30.44
2022-08-26T12:53:09.986Z,30.52
2022-08-26T12:55:50.678Z,30.66
2022-08-26T12:58:31.689Z,30.71
2022-08-26T13:01:04.745Z,30.89
2022-08-26T13:03:34.306Z,31.16
2022-08-26T13:06:22.971Z,31.37
2022-08-26T13:09:09.887Z,31.60
2022-08-26T13:11:39.401Z,31.75
2022-08-26T13:14:09.014Z,31.91
2022-08-26T13:16:39.602Z,31.64
2022-08-26T13:19:18.367Z,31.96
2022-08-26T13:21:58.144Z,32.13
2022-08-26T13:24:40.296Z,32.46
2022-08-26T13:27:10.229Z,32.87
2022-08-26T13:29:36.787Z,33.52
2022-08-26T13:32:06.495Z,34.12
2022-08-26T13:34:34.140Z,34.67
2022-08-26T13:37:02.040Z,35.56
2022-08-26T13:39:28.750Z,35.80
2022-08-26T13:41:55.490Z,36.16
2022-08-26T13:44:22.156Z,35.61
2022-08-26T13:46:49.205Z,34.87
2022-08-26T13:49:16.068Z,34.20
2022-08-26T13:51:42.819Z,33.66
2022-08-26T13:54:09.557Z,33.28
2022-08-26T13:56:37.383Z,32.73
2022-08-26T13:59:05.803Z,32.28
2022-08-26T14:01:35.411Z,31.85
2022-08-26T14:04:03.152Z,31.35
2022-08-26T14:06:30.316Z,31.10
2022-08-26T14:08:57.386Z,30.91
2022-08-26T14:11:24.938Z,30.36
2022-08-26T14:13:52.366Z,30.02
2022-08-26T14:16:36.227Z,29.24
2022-08-26T14:19:24.302Z,28.91
2022-08-26T14:21:53.428Z,28.50
2022-08-26T14:24:20.064Z,27.73
2022-08-26T14:26:48.427Z,27.29
2022-08-26T14:29:18.471Z,26.93
2022-08-26T14:31:45.387Z,26.67
2022-08-26T14:34:14.128Z,26.55
2022-08-26T14:36:42.937Z,26.20
2022-08-26T14:39:14.682Z,25.52
2022-08-26T14:41:53.828Z,25.20
2022-08-26T14:44:27.796Z,24.99
2022-08-26T14:46:55.109Z,24.73
2022-08-26T14:49:27.347Z,24.66
2022-08-26T14:51:54.801Z,24.00
2022-08-26T14:54:24.285Z,24.09
2022-08-26T14:57:00.856Z,24.20
2022-08-26T14:59:33.104Z,24.21
2022-08-26T15:02:03.190Z,24.24
2022-08-26T15:04:31.038Z,24.20
2022-08-26T15:07:00.324Z,24.10
2022-08-26T15:09:35.065Z,23.77
2022-08-26T15:12:02.878Z,23.65
2022-08-26T15:14:32.812Z,23.58
2022-08-26T15:17:09.938Z,23.56
2022-08-26T15:19:36.767Z,23.37
2022-08-26T15:22:05.637Z,23.37
2022-08-26T15:24:32.538Z,23.40
2022-08-26T15:26:59.315Z,23.19
2022-08-26T15:29:26.191Z,23.00
2022-08-26T15:31:55.160Z,22.89
2022-08-26T15:34:24.566Z,22.77
2022-08-26T15:36:51.323Z,22.68
2022-08-26T15:39:19.820Z,22.65
2022-08-26T15:41:47.005Z,22.67
2022-08-26T15:44:14.366Z,22.52
2022-08-26T15:46:42.097Z,22.54
2022-08-26T15:49:16.197Z,22.53
2022-08-26T15:51:48.058Z,22.54
2022-08-26T15:54:18.314Z,22.60
2022-08-26T15:56:47.935Z,22.60
2022-08-26T15:59:15.390Z,22.57
2022-08-26T16:01:43.420Z,22.61
2022-08-26T16:04:11.468Z,22.48
2022-08-26T16:06:41.416Z,22.51
2022-08-26T16:09:09.812Z,22.49
2022-08-26T16:11:37.621Z,22.51
2022-08-26T16:14:05.805Z,22.46
2022-08-26T16:16:32.974Z,22.48
2022-08-26T16:19:06.862Z,22.39
2022-08-26T16:21:35.323Z,22.27
2022-08-26T16:24:03.274Z,22.15
2022-08-26T16:26:35.270Z,22.14
2022-08-26T16:29:06.308Z,22.06
2022-08-26T16:31:33.218Z,22.01
2022-08-26T16:34:00.002Z,22.00
2022-08-26T16:36:26.711Z,21.91
2022-08-26T16:38:56.102Z,21.91
2022-08-26T16:41:26.037Z,21.87
2022-08-26T16:43:54.455Z,21.78
2022-08-26T16:46:26.187Z,21.70
2022-08-26T16:48:55.972Z,21.67
2022-08-26T16:51:27.192Z,21.64
2022-08-26T16:53:56.503Z,21.47
2022-08-26T16:56:33.782Z,21.51
2022-08-26T16:59:07.800Z,21.47
2022-08-26T17:01:34.607Z,21.47
2022-08-26T17:04:01.287Z,21.40
2022-08-26T17:06:27.987Z,21.32
2022-08-26T17:08:54.603Z,21.12
2022-08-26T17:11:21.210Z,21.14
2022-08-26T17:13:47.929Z,21.10
2022-08-26T17:16:15.785Z,20.97
2022-08-26T17:18:42.570Z,20.75
2022-08-26T17:21:13.101Z,20.73
2022-08-26T17:23:42.883Z,20.60
2022-08-26T17:26:12.273Z,20.74
2022-08-26T17:28:39.894Z,20.70
2022-08-26T17:31:10.038Z,20.81
2022-08-26T17:33:38.123Z,20.87
2022-08-26T17:36:07.269Z,20.94
2022-08-26T17:38:35.276Z,20.94
2022-08-26T17:41:01.904Z,21.04
2022-08-26T17:43:29.425Z,21.05
2022-08-26T17:46:07.443Z,21.11
2022-08-26T17:48:37.199Z,21.14
2022-08-26T17:51:15.018Z,21.20
2022-08-26T17:53:42.328Z,21.19
2022-08-26T17:56:13.062Z,21.21
2022-08-26T17:58:40.383Z,21.28
2022-08-26T18:01:07.707Z,21.31
2022-08-26T18:03:35.363Z,21.31
2022-08-26T18:06:02.562Z,21.31
2022-08-26T18:08:29.237Z,21.34
2022-08-26T18:10:55.829Z,21.35
2022-08-26T18:13:22.511Z,21.16
2022-08-26T18:15:49.175Z,20.99
2022-08-26T18:18:16.302Z,20.93
2022-08-26T18:20:45.029Z,20.87
2022-08-26T18:23:13.183Z,20.91
2022-08-26T18:25:43.039Z,20.96
2022-08-26T18:28:10.432Z,20.95
2022-08-26T18:30:38.208Z,20.94
2022-08-26T18:33:04.954Z,20.87
2022-08-26T18:35:31.585Z,20.81
2022-08-26T18:38:10.435Z,20.79
2022-08-26T18:40:41.339Z,20.85
2022-08-26T18:43:08.857Z,20.80
2022-08-26T18:45:38.883Z,20.81
2022-08-26T18:48:09.047Z,20.79
2022-08-26T18:50:43.806Z,20.82
2022-08-26T18:53:13.439Z,20.87
2022-08-26T18:55:41.000Z,20.88
2022-08-26T18:58:07.644Z,20.93
2022-08-26T19:00:34.353Z,20.93
2022-08-26T19:03:01.033Z,20.90
2022-08-26T19:05:27.891Z,20.88
2022-08-26T19:07:56.425Z,20.92
2022-08-26T19:10:23.060Z,20.79
2022-08-26T19:12:51.897Z,20.76
2022-08-26T19:15:19.324Z,20.74
2022-08-26T19:17:45.977Z,20.79
2022-08-26T19:20:31.087Z,20.83
2022-08-26T19:23:33.585Z,20.83
2022-08-26T19:26:19.293Z,20.80
2022-08-26T19:28:58.449Z,20.82
2022-08-26T19:31:25.930Z,20.78
2022-08-26T19:33:53.071Z,20.86
2022-08-26T19:36:24.812Z,20.84
2022-08-26T19:38:53.181Z,20.69
2022-08-26T19:41:37.401Z,20.77
2022-08-26T19:44:12.951Z,20.79
2022-08-26T19:46:40.773Z,20.72
2022-08-26T19:49:07.809Z,20.68
2022-08-26T19:51:36.428Z,20.50
2022-08-26T19:54:04.322Z,20.54
2022-08-26T19:56:31.191Z,20.42
2022-08-26T19:58:58.303Z,20.42
2022-08-26T20:01:25.608Z,20.50
2022-08-26T20:03:53.018Z,20.60
2022-08-26T20:06:20.307Z,20.62
2022-08-26T20:08:50.840Z,20.67
2022-08-26T20:11:20.659Z,20.70
2022-08-26T20:13:48.354Z,20.67
2022-08-26T20:16:16.811Z,20.66
2022-08-26T20:19:04.107Z,20.60
2022-08-26T20:21:38.024Z,20.54
2022-08-26T20:24:16.803Z,20.40
2022-08-26T20:26:45.228Z,20.11
2022-08-26T20:29:17.534Z,19.99
2022-08-26T20:31:45.614Z,20.00
2022-08-26T20:34:14.909Z,19.92
2022-08-26T20:36:43.260Z,19.88
2022-08-26T20:39:10.861Z,19.73
2022-08-26T20:41:38.683Z,19.73
2022-08-26T20:44:06.501Z,19.74
2022-08-26T20:46:34.714Z,19.77
2022-08-26T20:49:01.836Z,19.87
2022-08-26T20:51:29.061Z,19.91
2022-08-26T20:53:55.767Z,19.90
2022-08-26T20:56:25.044Z,19.81
2022-08-26T20:58:55.641Z,19.83
2022-08-26T21:01:30.684Z,19.90
2022-08-26T21:03:57.538Z,19.86
2022-08-26T21:06:25.108Z,19.89
2022-08-26T21:08:51.726Z,19.81
2022-08-26T21:11:20.164Z,19.75
2022-08-26T21:14:04.393Z,19.74
2022-08-26T21:16:36.750Z,19.70
2022-08-26T21:19:06.291Z,19.65
2022-08-26T21:21:33.562Z,19.60
2022-08-26T21:24:00.536Z,19.59
2022-08-26T21:26:27.574Z,19.54
2022-08-26T21:28:54.778Z,19.55
2022-08-26T21:31:25.239Z,19.64
2022-08-26T21:33:53.127Z,19.62
2022-08-26T21:36:20.220Z,19.64
2022-08-26T21:38:47.136Z,19.75
2022-08-26T21:41:19.362Z,19.79
2022-08-26T21:43:47.872Z,19.84
2022-08-26T21:46:19.839Z,19.89
2022-08-26T21:48:53.598Z,19.95
2022-08-26T21:51:23.287Z,20.01
2022-08-26T21:53:52.729Z,19.91
2022-08-26T21:56:21.332Z,19.90
2022-08-26T21:58:48.016Z,19.92
2022-08-26T22:01:20.961Z,19.94
2022-08-26T22:03:49.840Z,19.85
2022-08-26T22:06:18.909Z,19.75
2022-08-26T22:08:45.569Z,19.60
2022-08-26T22:11:13.219Z,19.59
2022-08-26T22:13:42.428Z,19.63
2022-08-26T22:16:10.483Z,19.53
2022-08-26T22:18:38.418Z,19.53
2022-08-26T22:21:13.888Z,19.57
2022-08-26T22:23:41.734Z,19.41
2022-08-26T22:26:11.631Z,19.44
2022-08-26T22:28:39.279Z,19.44
2022-08-26T22:31:12.332Z,19.44
2022-08-26T22:33:42.312Z,19.45
2022-08-26T22:36:24.317Z,19.36
2022-08-26T22:38:51.136Z,19.34
2022-08-26T22:41:18.511Z,19.27
2022-08-26T22:43:46.875Z,19.24
2022-08-26T22:46:24.595Z,19.23
2022-08-26T22:48:53.702Z,19.17
2022-08-26T22:51:23.025Z,19.17
2022-08-26T22:53:49.883Z,19.13
2022-08-26T22:56:18.308Z,19.15
2022-08-26T22:58:45.481Z,19.15
2022-08-26T23:01:12.244Z,19.11
2022-08-26T23:03:39.321Z,19.12
2022-08-26T23:06:09.350Z,19.10
2022-08-26T23:08:37.318Z,19.02
2022-08-26T23:11:09.128Z,18.99
2022-08-26T23:13:36.332Z,18.98
2022-08-26T23:16:09.093Z,19.03
2022-08-26T23:18:36.395Z,19.03
2022-08-26T23:21:03.201Z,18.98
2022-08-26T23:23:30.019Z,18.99
2022-08-26T23:25:57.401Z,19.03
2022-08-26T23:28:24.249Z,18.98
2022-08-26T23:30:50.826Z,18.97
2022-08-26T23:33:17.527Z,19.01
2022-08-26T23:35:44.238Z,18.99
2022-08-26T23:38:13.966Z,18.87
2022-08-26T23:40:41.258Z,18.92
2022-08-26T23:43:11.420Z,18.91
2022-08-26T23:45:38.654Z,18.89
2022-08-26T23:48:06.533Z,18.87
2022-08-26T23:50:52.593Z,18.90
2022-08-26T23:53:22.613Z,18.94
2022-08-26T23:55:52.609Z,18.96
2022-08-26T23:58:21.255Z,19.05
